sensor_id;sensor_type;location;lat;lon;timestamp;P1;durP1;ratioP1;P2;durP2;ratioP2
78288;SDS011;67539;48.752;12.922;2023-09-07T00:08:17;540.20;;;421.40;;
78288;SDS011;67539;48.752;12.922;2023-09-07T00:13:14;546.40;;;457.20;;
78288;SDS011;67539;48.752;12.922;2023-09-07T00:20:41;541.70;;;434.50;;
78288;SDS011;67539;48.752;12.922;2023-09-07T01:42:36;532.60;;;370.10;;
78288;SDS011;67539;48.752;12.922;2023-09-07T08:27:14;564.55;;;488.75;;
78288;SDS011;67539;48.752;12.922;2023-09-07T08:42:18;619.80;;;555.80;;
78288;SDS011;67539;48.752;12.922;2023-09-07T08:47:17;596.20;;;528.50;;
78288;SDS011;67539;48.752;12.922;2023-09-07T08:57:13;605.20;;;541.40;;
78288;SDS011;67539;48.752;12.922;2023-09-07T08:59:43;625.00;;;560.30;;
78288;SDS011;67539;48.752;12.922;2023-09-07T09:02:11;619.50;;;554.20;;
78288;SDS011;67539;48.752;12.922;2023-09-07T09:04:39;656.30;;;591.60;;
78288;SDS011;67539;48.752;12.922;2023-09-07T09:07:08;594.50;;;530.30;;
78288;SDS011;67539;48.752;12.922;2023-09-07T09:09:37;630.85;;;565.45;;
78288;SDS011;67539;48.752;12.922;2023-09-07T09:12:08;598.40;;;535.10;;
78288;SDS011;67539;48.752;12.922;2023-09-07T09:14:38;640.45;;;575.15;;
78288;SDS011;67539;48.752;12.922;2023-09-07T09:17:11;619.40;;;554.80;;
78288;SDS011;67539;48.752;12.922;2023-09-07T09:19:40;624.00;;;559.70;;
78288;SDS011;67539;48.752;12.922;2023-09-07T09:22:09;667.30;;;600.60;;
78288;SDS011;67539;48.752;12.922;2023-09-07T09:24:40;671.40;;;605.95;;
78288;SDS011;67539;48.752;12.922;2023-09-07T09:27:08;633.65;;;569.55;;
78288;SDS011;67539;48.752;12.922;2023-09-07T09:29:37;662.50;;;595.60;;
78288;SDS011;67539;48.752;12.922;2023-09-07T09:32:06;672.95;;;607.30;;
78288;SDS011;67539;48.752;12.922;2023-09-07T09:34:35;659.10;;;594.30;;
78288;SDS011;67539;48.752;12.922;2023-09-07T09:37:05;677.35;;;610.45;;
78288;SDS011;67539;48.752;12.922;2023-09-07T09:39:42;660.25;;;595.15;;
78288;SDS011;67539;48.752;12.922;2023-09-07T09:42:11;656.80;;;591.90;;
78288;SDS011;67539;48.752;12.922;2023-09-07T09:44:40;709.20;;;641.30;;
78288;SDS011;67539;48.752;12.922;2023-09-07T09:47:09;663.50;;;598.20;;
78288;SDS011;67539;48.752;12.922;2023-09-07T09:49:40;682.30;;;616.80;;
78288;SDS011;67539;48.752;12.922;2023-09-07T09:52:10;688.38;;;620.80;;
78288;SDS011;67539;48.752;12.922;2023-09-07T09:54:41;691.33;;;625.53;;
78288;SDS011;67539;48.752;12.922;2023-09-07T09:57:11;694.25;;;628.42;;
78288;SDS011;67539;48.752;12.922;2023-09-07T09:59:39;713.00;;;645.20;;
78288;SDS011;67539;48.752;12.922;2023-09-07T10:02:07;713.88;;;647.40;;
78288;SDS011;67539;48.752;12.922;2023-09-07T10:04:36;714.85;;;648.50;;
78288;SDS011;67539;48.752;12.922;2023-09-07T10:07:05;734.15;;;666.10;;
78288;SDS011;67539;48.752;12.922;2023-09-07T10:09:34;720.20;;;653.30;;
78288;SDS011;67539;48.752;12.922;2023-09-07T10:12:05;722.45;;;656.20;;
78288;SDS011;67539;48.752;12.922;2023-09-07T10:14:43;734.25;;;665.97;;
78288;SDS011;67539;48.752;12.922;2023-09-07T10:17:21;726.80;;;659.70;;
78288;SDS011;67539;48.752;12.922;2023-09-07T10:19:50;744.95;;;678.15;;
78288;SDS011;67539;48.752;12.922;2023-09-07T10:22:31;753.30;;;685.05;;
78288;SDS011;67539;48.752;12.922;2023-09-07T10:25:00;759.10;;;691.30;;
78288;SDS011;67539;48.752;12.922;2023-09-07T10:27:37;758.75;;;691.58;;
78288;SDS011;67539;48.752;12.922;2023-09-07T10:30:09;775.30;;;707.17;;
78288;SDS011;67539;48.752;12.922;2023-09-07T10:32:39;766.90;;;698.75;;
78288;SDS011;67539;48.752;12.922;2023-09-07T10:35:12;771.17;;;703.77;;
78288;SDS011;67539;48.752;12.922;2023-09-07T10:37:41;769.90;;;702.47;;
78288;SDS011;67539;48.752;12.922;2023-09-07T10:40:11;780.70;;;711.75;;
78288;SDS011;67539;48.752;12.922;2023-09-07T10:42:44;772.92;;;705.83;;
78288;SDS011;67539;48.752;12.922;2023-09-07T10:45:12;773.40;;;705.90;;
78288;SDS011;67539;48.752;12.922;2023-09-07T10:47:43;799.95;;;729.67;;
78288;SDS011;67539;48.752;12.922;2023-09-07T10:50:12;779.10;;;711.63;;
78288;SDS011;67539;48.752;12.922;2023-09-07T10:52:41;780.17;;;712.88;;
78288;SDS011;67539;48.752;12.922;2023-09-07T10:55:10;792.63;;;722.58;;
78288;SDS011;67539;48.752;12.922;2023-09-07T10:57:44;790.67;;;722.88;;
78288;SDS011;67539;48.752;12.922;2023-09-07T11:00:13;767.50;;;700.40;;
78288;SDS011;67539;48.752;12.922;2023-09-07T11:02:43;798.40;;;729.13;;
78288;SDS011;67539;48.752;12.922;2023-09-07T11:05:12;795.90;;;727.40;;
78288;SDS011;67539;48.752;12.922;2023-09-07T11:07:41;745.70;;;679.00;;
78288;SDS011;67539;48.752;12.922;2023-09-07T11:10:10;792.97;;;724.55;;
78288;SDS011;67539;48.752;12.922;2023-09-07T11:12:39;799.00;;;729.58;;
78288;SDS011;67539;48.752;12.922;2023-09-07T11:15:09;801.83;;;734.00;;
78288;SDS011;67539;48.752;12.922;2023-09-07T11:17:39;798.60;;;730.60;;
78288;SDS011;67539;48.752;12.922;2023-09-07T11:20:07;808.47;;;738.03;;
78288;SDS011;67539;48.752;12.922;2023-09-07T11:22:37;773.88;;;706.78;;
78288;SDS011;67539;48.752;12.922;2023-09-07T11:25:24;781.55;;;713.85;;
78288;SDS011;67539;48.752;12.922;2023-09-07T11:27:53;807.13;;;737.03;;
78288;SDS011;67539;48.752;12.922;2023-09-07T11:30:25;779.73;;;711.93;;
78288;SDS011;67539;48.752;12.922;2023-09-07T11:32:59;774.65;;;707.20;;
78288;SDS011;67539;48.752;12.922;2023-09-07T11:35:28;780.50;;;711.80;;
78288;SDS011;67539;48.752;12.922;2023-09-07T11:37:58;754.60;;;686.70;;
78288;SDS011;67539;48.752;12.922;2023-09-07T11:40:27;752.40;;;685.60;;
78288;SDS011;67539;48.752;12.922;2023-09-07T11:42:55;805.40;;;736.97;;
78288;SDS011;67539;48.752;12.922;2023-09-07T11:47:53;803.60;;;735.20;;
78288;SDS011;67539;48.752;12.922;2023-09-07T11:50:22;788.30;;;720.70;;
78288;SDS011;67539;48.752;12.922;2023-09-07T11:52:53;835.93;;;765.13;;
78288;SDS011;67539;48.752;12.922;2023-09-07T11:55:21;831.95;;;763.05;;
78288;SDS011;67539;48.752;12.922;2023-09-07T11:57:49;802.97;;;735.17;;
78288;SDS011;67539;48.752;12.922;2023-09-07T12:00:18;851.87;;;781.67;;
78288;SDS011;67539;48.752;12.922;2023-09-07T12:02:50;832.45;;;762.97;;
78288;SDS011;67539;48.752;12.922;2023-09-07T12:05:18;873.50;;;804.40;;
78288;SDS011;67539;48.752;12.922;2023-09-07T12:07:46;875.40;;;806.10;;
78288;SDS011;67539;48.752;12.922;2023-09-07T12:10:15;900.80;;;828.40;;
78288;SDS011;67539;48.752;12.922;2023-09-07T12:12:43;854.27;;;785.37;;
78288;SDS011;67539;48.752;12.922;2023-09-07T12:15:12;844.65;;;775.95;;
78288;SDS011;67539;48.752;12.922;2023-09-07T12:17:40;886.92;;;815.75;;
78288;SDS011;67539;48.752;12.922;2023-09-07T12:20:11;864.42;;;794.15;;
78288;SDS011;67539;48.752;12.922;2023-09-07T12:22:40;859.08;;;789.80;;
78288;SDS011;67539;48.752;12.922;2023-09-07T12:25:09;858.55;;;789.85;;
78288;SDS011;67539;48.752;12.922;2023-09-07T12:27:41;871.35;;;799.85;;
78288;SDS011;67539;48.752;12.922;2023-09-07T12:30:20;844.03;;;775.33;;
78288;SDS011;67539;48.752;12.922;2023-09-07T12:32:50;850.67;;;782.10;;
78288;SDS011;67539;48.752;12.922;2023-09-07T12:35:20;838.03;;;768.42;;
78288;SDS011;67539;48.752;12.922;2023-09-07T12:37:50;872.63;;;801.88;;
78288;SDS011;67539;48.752;12.922;2023-09-07T12:40:18;865.03;;;795.75;;
78288;SDS011;67539;48.752;12.922;2023-09-07T12:42:46;868.38;;;799.03;;
78288;SDS011;67539;48.752;12.922;2023-09-07T12:45:15;891.25;;;819.42;;
78288;SDS011;67539;48.752;12.922;2023-09-07T12:47:44;892.83;;;822.83;;
78288;SDS011;67539;48.752;12.922;2023-09-07T12:50:12;861.45;;;792.50;;
78288;SDS011;67539;48.752;12.922;2023-09-07T12:52:42;878.08;;;807.50;;
78288;SDS011;67539;48.752;12.922;2023-09-07T12:55:10;884.28;;;812.58;;
78288;SDS011;67539;48.752;12.922;2023-09-07T12:57:38;912.80;;;843.00;;
78288;SDS011;67539;48.752;12.922;2023-09-07T13:00:09;888.05;;;818.90;;
78288;SDS011;67539;48.752;12.922;2023-09-07T13:02:38;868.63;;;798.40;;
78288;SDS011;67539;48.752;12.922;2023-09-07T13:05:06;889.95;;;819.22;;
78288;SDS011;67539;48.752;12.922;2023-09-07T13:07:35;867.60;;;798.35;;
78288;SDS011;67539;48.752;12.922;2023-09-07T13:10:05;838.17;;;769.67;;
78288;SDS011;67539;48.752;12.922;2023-09-07T13:12:33;853.15;;;782.30;;
78288;SDS011;67539;48.752;12.922;2023-09-07T13:15:02;881.13;;;811.05;;
78288;SDS011;67539;48.752;12.922;2023-09-07T13:17:30;885.25;;;815.47;;
78288;SDS011;67539;48.752;12.922;2023-09-07T13:19:58;886.22;;;816.38;;
78288;SDS011;67539;48.752;12.922;2023-09-07T13:22:27;870.42;;;798.22;;
78288;SDS011;67539;48.752;12.922;2023-09-07T13:24:55;894.35;;;824.28;;
78288;SDS011;67539;48.752;12.922;2023-09-07T13:27:25;893.28;;;822.72;;
78288;SDS011;67539;48.752;12.922;2023-09-07T13:29:53;914.03;;;842.42;;
78288;SDS011;67539;48.752;12.922;2023-09-07T13:32:22;902.50;;;830.28;;
78288;SDS011;67539;48.752;12.922;2023-09-07T13:34:51;915.80;;;844.70;;
78288;SDS011;67539;48.752;12.922;2023-09-07T13:37:19;948.63;;;877.08;;
78288;SDS011;67539;48.752;12.922;2023-09-07T13:39:47;982.80;;;910.08;;
78288;SDS011;67539;48.752;12.922;2023-09-07T13:42:16;1008.03;;;932.95;;
78288;SDS011;67539;48.752;12.922;2023-09-07T13:44:45;1030.23;;;956.03;;
78288;SDS011;67539;48.752;12.922;2023-09-07T13:47:14;1041.90;;;968.40;;
78288;SDS011;67539;48.752;12.922;2023-09-07T13:49:42;1038.20;;;964.70;;
78288;SDS011;67539;48.752;12.922;2023-09-07T13:52:10;1020.40;;;947.80;;
78288;SDS011;67539;48.752;12.922;2023-09-07T13:54:39;1080.55;;;999.90;;
78288;SDS011;67539;48.752;12.922;2023-09-07T13:57:08;1080.00;;;999.90;;
78288;SDS011;67539;48.752;12.922;2023-09-07T13:59:36;1057.47;;;983.58;;
78288;SDS011;67539;48.752;12.922;2023-09-07T14:02:06;1068.50;;;994.42;;
78288;SDS011;67539;48.752;12.922;2023-09-07T14:04:34;1031.85;;;959.03;;
78288;SDS011;67539;48.752;12.922;2023-09-07T14:07:02;1010.75;;;938.55;;
78288;SDS011;67539;48.752;12.922;2023-09-07T14:09:31;1002.65;;;929.72;;
78288;SDS011;67539;48.752;12.922;2023-09-07T14:12:00;998.00;;;924.85;;
78288;SDS011;67539;48.752;12.922;2023-09-07T14:14:28;986.53;;;914.83;;
78288;SDS011;67539;48.752;12.922;2023-09-07T14:16:56;977.58;;;906.47;;
78288;SDS011;67539;48.752;12.922;2023-09-07T14:19:28;971.30;;;900.50;;
78288;SDS011;67539;48.752;12.922;2023-09-07T14:21:57;940.65;;;870.92;;
78288;SDS011;67539;48.752;12.922;2023-09-07T14:24:25;951.90;;;880.70;;
78288;SDS011;67539;48.752;12.922;2023-09-07T14:26:54;969.10;;;896.90;;
78288;SDS011;67539;48.752;12.922;2023-09-07T14:29:22;935.40;;;865.17;;
78288;SDS011;67539;48.752;12.922;2023-09-07T14:31:50;926.75;;;857.55;;
78288;SDS011;67539;48.752;12.922;2023-09-07T14:34:18;900.85;;;832.45;;
78288;SDS011;67539;48.752;12.922;2023-09-07T14:36:48;846.40;;;779.70;;
78288;SDS011;67539;48.752;12.922;2023-09-07T14:39:17;869.10;;;800.80;;
78288;SDS011;67539;48.752;12.922;2023-09-07T14:41:50;893.70;;;824.00;;
78288;SDS011;67539;48.752;12.922;2023-09-07T14:44:20;929.28;;;859.20;;
78288;SDS011;67539;48.752;12.922;2023-09-07T14:46:48;929.60;;;860.30;;
78288;SDS011;67539;48.752;12.922;2023-09-07T14:49:17;911.20;;;842.00;;
78288;SDS011;67539;48.752;12.922;2023-09-07T14:51:46;902.17;;;833.67;;
78288;SDS011;67539;48.752;12.922;2023-09-07T14:54:16;934.78;;;864.28;;
78288;SDS011;67539;48.752;12.922;2023-09-07T14:56:44;980.90;;;908.30;;
78288;SDS011;67539;48.752;12.922;2023-09-07T14:59:12;976.17;;;904.47;;
78288;SDS011;67539;48.752;12.922;2023-09-07T15:01:41;926.53;;;857.10;;
78288;SDS011;67539;48.752;12.922;2023-09-07T15:04:21;932.37;;;862.77;;
78288;SDS011;67539;48.752;12.922;2023-09-07T15:06:50;947.77;;;877.63;;
78288;SDS011;67539;48.752;12.922;2023-09-07T15:09:18;898.40;;;829.10;;
78288;SDS011;67539;48.752;12.922;2023-09-07T15:14:15;888.70;;;819.80;;
78288;SDS011;67539;48.752;12.922;2023-09-07T15:16:43;863.40;;;795.80;;
78288;SDS011;67539;48.752;12.922;2023-09-07T15:21:39;819.60;;;753.40;;
78288;SDS011;67539;48.752;12.922;2023-09-07T15:24:09;839.70;;;771.50;;
78288;SDS011;67539;48.752;12.922;2023-09-07T15:26:41;828.10;;;760.60;;
78288;SDS011;67539;48.752;12.922;2023-09-07T15:29:09;841.70;;;774.60;;
